createdAt,value
2023-07-08T00:05:57.278Z,12.84
2023-07-08T00:16:00.438Z,12.71
2023-07-08T00:26:05.330Z,12.60
2023-07-08T00:36:13.776Z,12.50
2023-07-08T00:46:31.477Z,12.35
2023-07-08T00:56:40.238Z,12.26
2023-07-08T01:06:47.887Z,12.14
2023-07-08T01:16:52.038Z,12.05
2023-07-08T01:26:55.545Z,11.93
2023-07-08T01:37:00.016Z,11.87
2023-07-08T01:47:09.275Z,11.78
2023-07-08T01:57:12.306Z,11.71
2023-07-08T02:07:15.365Z,11.61
2023-07-08T02:17:18.327Z,11.52
2023-07-08T02:27:21.249Z,11.45
2023-07-08T02:37:24.317Z,11.41
2023-07-08T02:47:27.482Z,11.42
2023-07-08T02:57:30.842Z,11.49
2023-07-08T03:07:33.961Z,11.95
2023-07-08T03:17:36.930Z,14.38
2023-07-08T03:27:40.138Z,17.56
2023-07-08T03:37:43.332Z,17.66
2023-07-08T03:47:46.413Z,17.08
2023-07-08T03:57:50.266Z,16.26
2023-07-08T04:07:54.068Z,18.35
2023-07-08T04:17:57.730Z,26.16
2023-07-08T04:28:00.703Z,31.36
2023-07-08T04:38:09.724Z,35.27
2023-07-08T04:48:15.746Z,38.77
2023-07-08T04:58:18.899Z,41.48
2023-07-08T05:08:21.861Z,44.19
2023-07-08T05:18:24.873Z,46.68
2023-07-08T05:28:28.131Z,48.57
2023-07-08T05:38:31.376Z,50.53
2023-07-08T05:48:34.420Z,52.57
2023-07-08T05:58:37.397Z,54.01
2023-07-08T06:08:40.453Z,55.71
2023-07-08T06:18:43.359Z,56.72
2023-07-08T06:28:46.376Z,57.71
2023-07-08T06:38:49.350Z,58.96
2023-07-08T06:48:54.151Z,60.02
2023-07-08T06:58:57.264Z,60.41
2023-07-08T07:09:00.323Z,61.25
2023-07-08T07:19:03.309Z,62.32
2023-07-08T07:29:06.748Z,62.63
2023-07-08T07:39:09.906Z,62.62
2023-07-08T07:49:12.838Z,62.20
2023-07-08T07:59:15.964Z,60.23
2023-07-08T08:09:18.963Z,51.16
2023-07-08T08:19:23.041Z,43.75
2023-07-08T08:29:26.050Z,39.56
2023-07-08T08:39:30.535Z,37.47
2023-07-08T08:49:42.744Z,35.86
2023-07-08T08:59:54.270Z,34.75
2023-07-08T09:10:05.376Z,33.83
2023-07-08T09:20:21.657Z,32.71
2023-07-08T09:30:26.846Z,31.99
2023-07-08T09:40:32.922Z,31.75
2023-07-08T09:50:37.479Z,31.52
2023-07-08T10:00:42.516Z,31.07
2023-07-08T10:10:47.787Z,30.67
2023-07-08T10:21:00.397Z,30.24
2023-07-08T10:31:27.848Z,29.91
2023-07-08T10:41:44.489Z,29.49
2023-07-08T10:51:54.745Z,29.34
2023-07-08T11:02:16.310Z,29.44
2023-07-08T11:12:27.990Z,29.47
2023-07-08T11:22:32.955Z,29.48
2023-07-08T11:32:37.245Z,29.08
2023-07-08T11:42:46.037Z,28.84
2023-07-08T11:52:54.268Z,28.84
2023-07-08T12:02:59.365Z,28.74
2023-07-08T12:13:03.322Z,28.88
2023-07-08T12:23:13.416Z,28.85
2023-07-08T12:33:19.394Z,28.90
2023-07-08T12:43:22.543Z,28.64
2023-07-08T12:53:25.433Z,28.54
2023-07-08T13:03:31.008Z,28.56
2023-07-08T13:13:37.411Z,28.60
2023-07-08T13:23:41.250Z,28.60
2023-07-08T13:33:48.878Z,28.56
2023-07-08T13:43:52.273Z,28.58
2023-07-08T13:54:00.612Z,28.61
2023-07-08T14:04:05.141Z,28.62
2023-07-08T14:14:09.697Z,28.51
2023-07-08T14:24:14.813Z,28.48
2023-07-08T14:34:22.793Z,28.55
2023-07-08T14:44:31.375Z,28.56
2023-07-08T14:54:34.732Z,28.56
2023-07-08T15:04:37.681Z,28.46
2023-07-08T15:14:41.265Z,28.42
2023-07-08T15:24:44.440Z,28.45
2023-07-08T15:34:47.648Z,28.48
2023-07-08T15:44:52.636Z,28.55
2023-07-08T15:54:55.581Z,28.62
2023-07-08T16:04:58.981Z,28.67
2023-07-08T16:15:02.203Z,28.57
2023-07-08T16:25:06.913Z,28.40
2023-07-08T16:35:11.452Z,28.38
2023-07-08T16:45:16.905Z,28.21
2023-07-08T16:55:21.952Z,28.09
2023-07-08T17:05:29.123Z,28.08
2023-07-08T17:15:32.721Z,27.74
2023-07-08T17:25:35.696Z,27.44
2023-07-08T17:35:38.599Z,27.24
2023-07-08T17:45:45.925Z,26.97
2023-07-08T17:55:51.918Z,26.62
2023-07-08T18:05:54.846Z,26.29
2023-07-08T18:15:57.761Z,25.93
2023-07-08T18:26:01.126Z,25.55
2023-07-08T18:36:05.961Z,25.15
2023-07-08T18:46:11.629Z,24.69
2023-07-08T18:56:17.074Z,24.18
2023-07-08T19:06:20.577Z,23.63
2023-07-08T19:16:23.920Z,23.23
2023-07-08T19:26:27.830Z,22.92
2023-07-08T19:36:32.751Z,22.66
2023-07-08T19:46:35.672Z,22.43
2023-07-08T19:56:39.051Z,22.03
2023-07-08T20:06:43.490Z,21.59
2023-07-08T20:16:48.360Z,21.15
2023-07-08T20:26:51.674Z,20.70
2023-07-08T20:36:54.833Z,20.31
2023-07-08T20:46:57.922Z,19.95
2023-07-08T20:57:01.106Z,19.56
2023-07-08T21:07:05.341Z,19.25
2023-07-08T21:17:15.780Z,18.95
2023-07-08T21:27:22.902Z,18.67
2023-07-08T21:37:26.062Z,18.43
2023-07-08T21:47:29.409Z,18.22
2023-07-08T21:57:32.494Z,18.03
2023-07-08T22:07:35.643Z,17.92
2023-07-08T22:17:38.687Z,17.81
2023-07-08T22:27:42.127Z,17.71
2023-07-08T22:37:45.061Z,17.81
2023-07-08T22:47:49.009Z,18.22
2023-07-08T22:57:52.393Z,18.42
2023-07-08T23:07:56.320Z,18.69
2023-07-08T23:17:59.326Z,18.58
2023-07-08T23:28:02.721Z,18.75
2023-07-08T23:38:05.735Z,18.70
2023-07-08T23:48:13.352Z,18.50
2023-07-08T23:58:21.137Z,18.18
